createdAt,value
2022-12-28T00:01:49.025Z,0.50
2022-12-28T00:04:17.901Z,0.60
2022-12-28T00:06:44.993Z,0.60
2022-12-28T00:09:12.304Z,0.60
2022-12-28T00:11:43.950Z,0.70
2022-12-28T00:14:10.675Z,0.70
2022-12-28T00:16:41.097Z,0.70
2022-12-28T00:19:12.913Z,0.60
2022-12-28T00:21:42.235Z,0.60
2022-12-28T00:24:17.470Z,0.60
2022-12-28T00:26:44.826Z,0.60
2022-12-28T00:29:13.825Z,0.70
2022-12-28T00:34:29.571Z,0.70
2022-12-28T00:37:08.658Z,0.70
2022-12-28T00:39:38.395Z,0.70
2022-12-28T00:42:07.471Z,0.70
2022-12-28T00:44:34.386Z,0.80
2022-12-28T00:47:01.003Z,0.80
2022-12-28T00:49:29.697Z,0.80
2022-12-28T00:51:56.430Z,0.80
2022-12-28T00:54:23.925Z,0.90
2022-12-28T00:56:51.945Z,0.90
2022-12-28T00:59:18.557Z,0.90
2022-12-28T01:01:45.277Z,1.00
2022-12-28T01:04:38.899Z,1.00
2022-12-28T01:07:11.780Z,1.00
2022-12-28T01:09:39.689Z,1.00
2022-12-28T01:12:06.509Z,1.00
2022-12-28T01:14:33.124Z,1.00
2022-12-28T01:17:01.092Z,1.10
2022-12-28T01:19:27.708Z,1.10
2022-12-28T01:22:01.659Z,1.10
2022-12-28T01:24:30.833Z,1.10
2022-12-28T01:27:05.528Z,1.00
2022-12-28T01:29:34.359Z,1.00
2022-12-28T01:32:00.947Z,1.00
2022-12-28T01:34:29.408Z,1.00
2022-12-28T01:36:56.107Z,1.00
2022-12-28T01:39:22.829Z,1.00
2022-12-28T01:42:00.033Z,1.10
2022-12-28T01:44:40.560Z,1.10
2022-12-28T01:47:14.771Z,1.10
2022-12-28T01:49:55.617Z,1.10
2022-12-28T01:52:28.424Z,1.20
2022-12-28T01:55:19.601Z,1.20
2022-12-28T01:58:09.037Z,1.20
2022-12-28T02:00:36.169Z,1.20
2022-12-28T02:03:17.461Z,1.20
2022-12-28T02:05:56.574Z,1.20
2022-12-28T02:08:36.464Z,1.20
2022-12-28T02:11:04.440Z,1.20
2022-12-28T02:13:35.445Z,1.20
2022-12-28T02:16:07.795Z,1.20
2022-12-28T02:18:34.581Z,1.30
2022-12-28T02:21:18.379Z,1.30
2022-12-28T02:23:51.248Z,1.30
2022-12-28T02:26:37.863Z,1.40
2022-12-28T02:29:43.789Z,1.40
2022-12-28T02:32:22.455Z,1.40
2022-12-28T02:35:18.860Z,1.50
2022-12-28T02:38:04.275Z,1.50
2022-12-28T02:41:01.462Z,1.50
2022-12-28T02:43:28.262Z,1.60
2022-12-28T02:46:13.760Z,1.70
2022-12-28T02:49:05.144Z,1.70
2022-12-28T02:51:53.618Z,1.70
2022-12-28T02:55:09.033Z,1.80
2022-12-28T02:57:45.695Z,1.80
2022-12-28T03:00:17.864Z,1.80
2022-12-28T03:06:19.164Z,1.90
2022-12-28T03:09:15.507Z,1.90
2022-12-28T03:12:07.416Z,1.90
2022-12-28T03:14:54.002Z,1.90
2022-12-28T03:17:46.595Z,1.90
2022-12-28T03:20:43.680Z,1.90
2022-12-28T03:23:34.377Z,1.90
2022-12-28T03:26:24.274Z,1.90
2022-12-28T03:29:13.659Z,2.00
2022-12-28T03:31:43.671Z,2.00
2022-12-28T03:34:13.755Z,2.10
2022-12-28T03:37:15.920Z,2.00
2022-12-28T03:40:25.856Z,2.10
2022-12-28T03:43:18.412Z,2.10
2022-12-28T03:45:58.008Z,2.10
2022-12-28T03:48:27.816Z,2.10
2022-12-28T03:50:55.546Z,2.10
2022-12-28T03:53:29.657Z,2.10
2022-12-28T03:56:18.723Z,2.10
2022-12-28T03:58:47.468Z,2.10
2022-12-28T04:01:16.641Z,2.10
2022-12-28T04:03:47.099Z,2.10
2022-12-28T04:06:16.164Z,2.10
2022-12-28T04:08:45.623Z,2.10
2022-12-28T04:11:23.473Z,2.10
2022-12-28T04:13:57.363Z,2.20
2022-12-28T04:16:32.200Z,2.10
2022-12-28T04:18:59.877Z,2.20
2022-12-28T04:21:28.578Z,2.20
2022-12-28T04:24:02.688Z,2.20
2022-12-28T04:26:32.018Z,2.20
2022-12-28T04:29:01.462Z,2.20
2022-12-28T04:31:43.519Z,2.20
2022-12-28T04:34:16.022Z,2.30
2022-12-28T04:36:53.249Z,2.30
2022-12-28T04:39:22.856Z,2.30
2022-12-28T04:41:50.887Z,2.30
2022-12-28T04:44:20.241Z,2.40
2022-12-28T04:46:47.087Z,2.40
2022-12-28T04:49:13.900Z,2.40
2022-12-28T04:51:40.745Z,2.50
2022-12-28T04:54:14.117Z,2.40
2022-12-28T04:56:42.493Z,2.40
2022-12-28T04:59:13.061Z,2.40
2022-12-28T05:01:39.843Z,2.40
2022-12-28T05:04:06.975Z,2.40
2022-12-28T05:06:34.140Z,2.30
2022-12-28T05:09:03.017Z,2.30
2022-12-28T05:11:31.214Z,2.30
2022-12-28T05:13:58.337Z,2.40
2022-12-28T05:16:28.933Z,2.40
2022-12-28T05:18:58.827Z,2.40
2022-12-28T05:24:28.942Z,2.40
2022-12-28T05:26:55.596Z,2.40
2022-12-28T05:29:22.175Z,2.50
2022-12-28T05:31:49.086Z,2.50
2022-12-28T05:34:18.087Z,2.50
2022-12-28T05:36:44.705Z,2.50
2022-12-28T05:39:12.970Z,2.50
2022-12-28T05:41:40.010Z,2.60
2022-12-28T05:44:06.928Z,2.60
2022-12-28T05:46:37.339Z,2.60
2022-12-28T05:49:08.864Z,2.60
2022-12-28T05:51:40.297Z,2.60
2022-12-28T05:54:07.016Z,2.70
2022-12-28T05:56:35.891Z,2.70
2022-12-28T05:59:05.099Z,2.70
2022-12-28T06:01:35.020Z,2.70
2022-12-28T06:04:08.404Z,2.70
2022-12-28T06:06:38.853Z,2.70
2022-12-28T06:09:08.977Z,2.80
2022-12-28T06:11:37.572Z,2.80
2022-12-28T06:14:11.119Z,2.80
2022-12-28T06:16:41.051Z,2.80
2022-12-28T06:19:11.126Z,2.80
2022-12-28T06:21:45.166Z,2.80
2022-12-28T06:24:13.208Z,2.80
2022-12-28T06:26:41.937Z,2.80
2022-12-28T06:29:08.928Z,2.80
2022-12-28T06:31:38.540Z,2.80
2022-12-28T06:34:06.951Z,2.80
2022-12-28T06:36:39.226Z,2.80
2022-12-28T06:39:09.003Z,2.80
2022-12-28T06:41:38.350Z,2.90
2022-12-28T06:44:06.702Z,2.90
2022-12-28T06:46:33.609Z,2.90
2022-12-28T06:49:00.487Z,2.90
2022-12-28T06:51:29.392Z,2.90
2022-12-28T06:53:56.472Z,3.00
2022-12-28T06:56:32.847Z,3.00
2022-12-28T06:59:06.378Z,3.00
2022-12-28T07:01:38.830Z,3.10
2022-12-28T07:04:07.129Z,3.30
2022-12-28T07:06:40.088Z,3.40
2022-12-28T07:09:10.309Z,3.60
2022-12-28T07:11:39.887Z,3.80
2022-12-28T07:14:08.291Z,4.10
2022-12-28T07:19:08.320Z,4.80
2022-12-28T07:21:40.484Z,5.10
2022-12-28T07:24:14.031Z,5.40
2022-12-28T07:26:41.243Z,5.70
2022-12-28T07:29:08.824Z,5.90
2022-12-28T07:31:44.875Z,6.20
2022-12-28T07:34:17.871Z,6.40
2022-12-28T07:36:45.127Z,6.60
2022-12-28T07:39:12.067Z,6.80
2022-12-28T07:41:38.949Z,7.00
2022-12-28T07:44:11.207Z,7.10
2022-12-28T07:46:42.627Z,7.30
2022-12-28T07:49:09.552Z,7.30
2022-12-28T07:54:18.147Z,7.40
2022-12-28T07:56:48.484Z,7.40
2022-12-28T07:59:15.406Z,7.50
2022-12-28T08:01:43.729Z,7.50
2022-12-28T08:04:13.481Z,7.50
2022-12-28T08:06:45.387Z,7.60
2022-12-28T08:09:14.727Z,7.70
2022-12-28T08:11:46.010Z,7.70
2022-12-28T08:14:16.079Z,7.80
2022-12-28T08:16:44.531Z,7.80
2022-12-28T08:19:11.564Z,7.80
2022-12-28T08:21:43.615Z,7.80
2022-12-28T08:24:18.086Z,7.90
2022-12-28T08:26:47.593Z,7.90
2022-12-28T08:29:18.460Z,8.00
2022-12-28T08:31:46.666Z,8.00
2022-12-28T08:34:26.374Z,8.00
2022-12-28T08:37:01.166Z,8.10
2022-12-28T08:39:31.865Z,8.10
2022-12-28T08:41:59.143Z,8.10
2022-12-28T08:44:27.971Z,8.20
2022-12-28T08:46:55.026Z,8.30
2022-12-28T08:49:21.729Z,8.40
2022-12-28T08:51:48.708Z,8.40
2022-12-28T08:54:18.005Z,8.40
2022-12-28T08:56:45.224Z,8.40
2022-12-28T08:59:17.749Z,8.50
2022-12-28T09:01:55.160Z,8.60
2022-12-28T09:04:29.941Z,8.60
2022-12-28T09:07:00.584Z,8.60
2022-12-28T09:09:28.792Z,8.70
2022-12-28T09:11:55.576Z,8.70
2022-12-28T09:14:24.403Z,8.70
2022-12-28T09:16:55.647Z,8.70
2022-12-28T09:19:23.052Z,8.80
2022-12-28T09:21:54.604Z,8.80
2022-12-28T09:24:22.946Z,8.80
2022-12-28T09:26:53.658Z,8.90
2022-12-28T09:29:22.510Z,9.00
2022-12-28T09:31:49.328Z,9.10
2022-12-28T09:37:04.990Z,9.10
2022-12-28T09:39:34.125Z,9.20
2022-12-28T09:42:03.864Z,9.20
2022-12-28T09:44:40.141Z,9.30
2022-12-28T09:47:11.732Z,9.30
2022-12-28T09:50:10.678Z,9.40
2022-12-28T09:53:10.913Z,9.60
2022-12-28T10:02:31.735Z,9.70
2022-12-28T10:04:58.697Z,9.80
2022-12-28T10:07:25.806Z,9.80
2022-12-28T10:09:52.809Z,9.80
2022-12-28T10:12:22.226Z,9.90
2022-12-28T10:14:50.092Z,9.90
2022-12-28T10:17:28.037Z,10.00
2022-12-28T10:19:57.307Z,10.10
2022-12-28T10:22:31.356Z,10.20
2022-12-28T10:25:01.050Z,10.30
2022-12-28T10:27:31.013Z,10.30
2022-12-28T10:30:05.255Z,10.30
2022-12-28T10:32:53.761Z,10.40
2022-12-28T10:35:48.634Z,10.40
2022-12-28T10:38:21.880Z,10.50
2022-12-28T10:41:06.539Z,10.50
2022-12-28T10:43:43.338Z,10.70
2022-12-28T10:46:18.521Z,10.80
2022-12-28T10:48:56.216Z,10.90
2022-12-28T10:51:26.255Z,11.00
2022-12-28T10:53:57.234Z,11.00
2022-12-28T10:56:28.456Z,11.10
2022-12-28T10:59:30.865Z,11.10
2022-12-28T11:08:06.400Z,11.00
2022-12-28T11:10:33.165Z,11.10
2022-12-28T11:13:08.805Z,11.00
2022-12-28T11:15:38.994Z,11.00
2022-12-28T11:18:17.872Z,11.00
2022-12-28T11:20:50.398Z,11.00
2022-12-28T11:23:30.892Z,11.00
2022-12-28T11:26:00.308Z,11.00
2022-12-28T11:28:27.078Z,11.10
2022-12-28T11:30:53.905Z,11.10
2022-12-28T11:33:37.635Z,11.20
2022-12-28T11:36:09.943Z,11.20
2022-12-28T11:38:45.174Z,11.20
2022-12-28T11:41:40.491Z,11.20
2022-12-28T11:44:20.334Z,11.20
2022-12-28T11:47:02.912Z,11.30
2022-12-28T11:49:33.006Z,11.30
2022-12-28T11:52:30.546Z,11.30
2022-12-28T11:55:01.971Z,11.30
2022-12-28T11:57:38.454Z,11.30
2022-12-28T12:00:22.353Z,11.30
2022-12-28T12:03:01.366Z,11.30
2022-12-28T12:05:37.934Z,11.30
2022-12-28T12:08:19.016Z,11.20
2022-12-28T12:11:08.326Z,11.30
2022-12-28T12:13:44.594Z,11.40
2022-12-28T12:16:26.700Z,11.30
2022-12-28T12:19:06.176Z,11.30
2022-12-28T12:21:45.747Z,11.30
2022-12-28T12:24:31.642Z,11.30
2022-12-28T12:27:17.373Z,11.30
2022-12-28T12:30:01.432Z,11.40
2022-12-28T12:32:45.969Z,11.40
2022-12-28T12:35:21.434Z,11.30
2022-12-28T12:38:21.082Z,11.40
2022-12-28T12:41:26.330Z,11.40
2022-12-28T12:44:03.223Z,11.40
2022-12-28T12:47:06.181Z,11.40
2022-12-28T12:50:15.746Z,11.40
2022-12-28T12:53:08.300Z,11.40
2022-12-28T12:55:56.035Z,11.50
2022-12-28T12:58:50.609Z,11.50
2022-12-28T13:01:24.942Z,11.50
2022-12-28T13:07:38.883Z,11.60
2022-12-28T13:10:35.628Z,11.60
2022-12-28T13:13:04.611Z,11.60
2022-12-28T13:15:36.796Z,11.60
2022-12-28T13:21:08.918Z,11.60
2022-12-28T13:23:52.492Z,11.60
2022-12-28T13:26:46.879Z,11.60
2022-12-28T13:29:29.573Z,11.60
2022-12-28T13:31:58.018Z,11.60
2022-12-28T13:34:30.251Z,11.60
2022-12-28T13:37:30.713Z,11.60
2022-12-28T13:40:18.137Z,11.50
2022-12-28T13:43:25.511Z,11.50
2022-12-28T13:46:02.852Z,11.50
2022-12-28T13:54:32.080Z,11.40
2022-12-28T13:57:20.461Z,11.40
2022-12-28T13:59:52.612Z,11.40
2022-12-28T14:02:23.448Z,11.30
2022-12-28T14:04:57.153Z,11.30
2022-12-28T14:07:29.149Z,11.30
2022-12-28T14:09:57.563Z,11.40
2022-12-28T14:12:28.346Z,11.40
2022-12-28T14:14:55.897Z,11.40
2022-12-28T14:17:36.369Z,11.40
2022-12-28T14:20:03.958Z,11.40
2022-12-28T14:22:34.994Z,11.40
2022-12-28T14:25:10.181Z,11.40
2022-12-28T14:27:57.485Z,11.40
2022-12-28T14:30:31.676Z,11.40
2022-12-28T14:33:26.097Z,11.50
2022-12-28T14:36:05.790Z,11.50
2022-12-28T14:38:47.778Z,11.60
2022-12-28T14:41:40.312Z,11.70
2022-12-28T14:44:29.381Z,11.70
2022-12-28T14:47:06.072Z,11.70
2022-12-28T14:49:39.361Z,11.70
2022-12-28T14:52:15.732Z,11.70
2022-12-28T14:54:55.732Z,11.60
2022-12-28T14:57:33.031Z,11.60
2022-12-28T15:00:27.679Z,11.60
2022-12-28T15:03:21.462Z,11.50
2022-12-28T15:05:53.817Z,11.40
2022-12-28T15:08:28.831Z,11.40
2022-12-28T15:13:34.799Z,11.40
2022-12-28T15:16:04.635Z,11.30
2022-12-28T15:18:32.502Z,11.20
2022-12-28T15:21:04.890Z,11.10
2022-12-28T15:23:57.472Z,11.00
2022-12-28T15:26:37.874Z,10.90
2022-12-28T15:29:13.487Z,10.80
2022-12-28T15:31:53.699Z,10.70
2022-12-28T15:34:20.524Z,10.70
2022-12-28T15:36:47.292Z,10.50
2022-12-28T15:39:16.057Z,10.40
2022-12-28T15:41:45.575Z,10.40
2022-12-28T15:44:19.140Z,10.20
2022-12-28T15:46:55.424Z,10.10
2022-12-28T15:49:22.243Z,10.00
2022-12-28T15:51:49.288Z,9.90
2022-12-28T15:54:16.093Z,9.80
2022-12-28T15:56:54.957Z,9.70
2022-12-28T15:59:21.836Z,9.60
2022-12-28T16:01:53.089Z,9.50
2022-12-28T16:04:26.649Z,9.40
2022-12-28T16:07:23.965Z,9.40
2022-12-28T16:09:55.412Z,9.30
2022-12-28T16:12:22.341Z,9.20
2022-12-28T16:14:49.128Z,9.10
2022-12-28T16:17:35.126Z,9.10
2022-12-28T16:20:10.990Z,9.00
2022-12-28T16:22:41.867Z,9.00
2022-12-28T16:25:15.357Z,8.90
2022-12-28T16:27:42.384Z,8.90
2022-12-28T16:30:16.427Z,8.80
2022-12-28T16:36:00.169Z,8.80
2022-12-28T16:38:29.553Z,8.80
2022-12-28T16:40:56.892Z,8.70
2022-12-28T16:43:23.912Z,8.70
2022-12-28T16:45:54.487Z,8.70
2022-12-28T16:48:35.876Z,8.60
2022-12-28T16:51:05.463Z,8.60
2022-12-28T16:53:37.169Z,8.50
2022-12-28T16:56:20.889Z,8.50
2022-12-28T16:58:49.426Z,8.40
2022-12-28T17:01:16.855Z,8.30
2022-12-28T17:03:43.740Z,8.20
2022-12-28T17:06:20.448Z,8.10
2022-12-28T17:08:47.374Z,8.10
2022-12-28T17:11:16.350Z,8.00
2022-12-28T17:13:43.082Z,8.00
2022-12-28T17:16:09.895Z,7.80
2022-12-28T17:18:39.124Z,7.80
2022-12-28T17:21:07.186Z,7.70
2022-12-28T17:23:33.965Z,7.60
2022-12-28T17:26:00.922Z,7.50
2022-12-28T17:28:28.887Z,7.40
2022-12-28T17:31:17.905Z,7.40
2022-12-28T17:33:47.523Z,7.30
2022-12-28T17:36:19.482Z,7.30
2022-12-28T17:38:48.611Z,7.30
2022-12-28T17:41:19.022Z,7.30
2022-12-28T17:43:58.896Z,7.30
2022-12-28T17:46:30.398Z,7.30
2022-12-28T17:48:59.897Z,7.30
2022-12-28T17:51:28.512Z,7.30
2022-12-28T17:53:56.585Z,7.20
2022-12-28T17:56:24.949Z,7.20
2022-12-28T17:58:57.069Z,7.20
2022-12-28T18:01:46.486Z,7.10
2022-12-28T18:04:15.209Z,7.10
2022-12-28T18:06:44.390Z,7.00
2022-12-28T18:09:11.154Z,7.00
2022-12-28T18:11:40.420Z,7.00
2022-12-28T18:14:17.204Z,7.00
2022-12-28T18:16:47.253Z,6.90
2022-12-28T18:19:22.663Z,6.90
2022-12-28T18:21:49.304Z,6.90
2022-12-28T18:24:19.978Z,6.90
2022-12-28T18:26:49.303Z,6.80
2022-12-28T18:29:16.850Z,6.70
2022-12-28T18:31:44.226Z,6.60
2022-12-28T18:34:12.145Z,6.60
2022-12-28T18:36:38.816Z,6.50
2022-12-28T18:39:08.018Z,6.50
2022-12-28T18:41:36.122Z,6.50
2022-12-28T18:44:04.645Z,6.50
2022-12-28T18:46:31.795Z,6.50
2022-12-28T18:49:00.416Z,6.50
2022-12-28T18:51:35.949Z,6.40
2022-12-28T18:54:03.564Z,6.40
2022-12-28T18:56:30.355Z,6.40
2022-12-28T18:58:58.123Z,6.40
2022-12-28T19:04:16.534Z,6.40
2022-12-28T19:06:43.763Z,6.40
2022-12-28T19:09:13.441Z,6.30
2022-12-28T19:11:45.918Z,6.40
2022-12-28T19:14:28.716Z,6.30
2022-12-28T19:23:01.371Z,6.30
2022-12-28T19:25:30.044Z,6.30
2022-12-28T19:27:59.113Z,6.30
2022-12-28T19:30:26.992Z,6.20
2022-12-28T19:32:54.304Z,6.20
2022-12-28T19:35:25.146Z,6.20
2022-12-28T19:37:55.032Z,6.20
2022-12-28T19:40:25.472Z,6.30
2022-12-28T19:42:52.218Z,6.40
2022-12-28T19:45:19.020Z,6.70
2022-12-28T19:47:47.860Z,7.30
2022-12-28T19:50:14.968Z,7.80
2022-12-28T19:52:41.926Z,8.30
2022-12-28T19:55:09.218Z,8.80
2022-12-28T19:57:38.262Z,9.30
2022-12-28T20:00:08.752Z,9.60
2022-12-28T20:02:41.900Z,10.00
2022-12-28T20:05:11.875Z,10.30
2022-12-28T20:07:39.206Z,10.50
2022-12-28T20:10:07.671Z,10.60
2022-12-28T20:12:34.457Z,10.80
2022-12-28T20:15:27.812Z,11.00
2022-12-28T20:17:55.085Z,11.20
2022-12-28T20:20:27.485Z,11.50
2022-12-28T20:22:55.570Z,11.50
2022-12-28T20:25:25.743Z,11.50
2022-12-28T20:27:54.105Z,11.60
2022-12-28T20:30:22.066Z,11.80
2022-12-28T20:32:48.857Z,11.80
2022-12-28T20:35:15.797Z,11.80
2022-12-28T20:38:12.633Z,11.90
2022-12-28T20:40:48.712Z,11.90
2022-12-28T20:43:26.770Z,11.90
2022-12-28T20:45:57.592Z,12.00
2022-12-28T20:48:27.467Z,11.90
2022-12-28T20:51:01.484Z,11.90
2022-12-28T20:53:43.171Z,11.90
2022-12-28T20:56:22.312Z,11.80
2022-12-28T20:58:56.068Z,11.70
2022-12-28T21:01:25.367Z,11.70
2022-12-28T21:03:52.292Z,11.70
2022-12-28T21:06:21.661Z,11.60
2022-12-28T21:08:48.632Z,11.60
2022-12-28T21:11:22.136Z,11.60
2022-12-28T21:13:49.180Z,11.70
2022-12-28T21:16:18.151Z,11.80
2022-12-28T21:18:45.008Z,11.80
2022-12-28T21:21:17.885Z,11.90
2022-12-28T21:23:48.253Z,11.90
2022-12-28T21:26:19.930Z,12.00
2022-12-28T21:29:08.876Z,12.00
2022-12-28T21:31:35.808Z,12.10
2022-12-28T21:34:04.008Z,12.10
2022-12-28T21:36:30.785Z,12.10
2022-12-28T21:39:01.353Z,12.20
2022-12-28T21:41:46.648Z,12.30
2022-12-28T21:44:14.971Z,12.30
2022-12-28T21:46:42.646Z,12.30
2022-12-28T21:49:10.699Z,12.40
2022-12-28T21:51:37.894Z,12.40
2022-12-28T21:54:09.026Z,12.40
2022-12-28T21:56:37.241Z,12.50
2022-12-28T21:59:08.190Z,12.50
2022-12-28T22:01:56.837Z,12.60
2022-12-28T22:04:42.313Z,12.80
2022-12-28T22:07:11.354Z,13.00
2022-12-28T22:10:00.162Z,13.10
2022-12-28T22:12:34.030Z,13.20
2022-12-28T22:15:28.419Z,13.40
2022-12-28T22:18:00.570Z,13.40
2022-12-28T22:20:32.024Z,13.40
2022-12-28T22:23:00.416Z,13.30
2022-12-28T22:25:30.793Z,13.30
2022-12-28T22:27:58.170Z,13.40
2022-12-28T22:30:33.548Z,13.40
2022-12-28T22:33:00.441Z,13.40
2022-12-28T22:35:27.721Z,13.50
2022-12-28T22:37:55.495Z,13.60
2022-12-28T22:40:25.278Z,13.60
2022-12-28T22:42:58.791Z,13.50
2022-12-28T22:45:25.817Z,13.50
2022-12-28T22:47:59.808Z,13.50
2022-12-28T22:50:28.379Z,13.60
2022-12-28T22:52:57.675Z,13.50
2022-12-28T22:55:25.164Z,13.60
2022-12-28T22:57:51.965Z,13.60
2022-12-28T23:00:21.180Z,13.60
2022-12-28T23:02:52.622Z,13.50
2022-12-28T23:05:21.965Z,13.60
2022-12-28T23:07:48.984Z,13.60
2022-12-28T23:10:15.676Z,13.50
2022-12-28T23:12:47.943Z,13.50
2022-12-28T23:15:17.707Z,13.50
2022-12-28T23:17:46.618Z,13.50
2022-12-28T23:20:38.957Z,13.40
2022-12-28T23:23:24.584Z,13.50
2022-12-28T23:26:09.717Z,13.50
2022-12-28T23:28:36.504Z,13.60
2022-12-28T23:31:03.396Z,13.60
2022-12-28T23:33:32.760Z,13.60
2022-12-28T23:36:05.081Z,13.60
2022-12-28T23:38:34.276Z,13.60
2022-12-28T23:41:23.748Z,13.70
2022-12-28T23:43:52.935Z,13.70
2022-12-28T23:46:21.831Z,13.70
2022-12-28T23:48:48.749Z,13.70
2022-12-28T23:51:18.005Z,13.70
2022-12-28T23:53:47.168Z,13.70
2022-12-28T23:56:14.057Z,13.80
2022-12-28T23:58:40.768Z,13.80
